sensor_id;sensor_type;location;lat;lon;timestamp;temperature;humidity
44537;DHT22;30245;51.966;6.292;2024-02-14T00:02:02;13.00;64.60
44537;DHT22;30245;51.966;6.292;2024-02-14T00:04:30;12.90;64.80
44537;DHT22;30245;51.966;6.292;2024-02-14T00:06:55;13.00;65.00
44537;DHT22;30245;51.966;6.292;2024-02-14T00:09:21;13.00;64.90
44537;DHT22;30245;51.966;6.292;2024-02-14T00:11:46;13.10;64.90
44537;DHT22;30245;51.966;6.292;2024-02-14T00:14:12;13.10;65.00
44537;DHT22;30245;51.966;6.292;2024-02-14T00:16:38;13.00;65.10
44537;DHT22;30245;51.966;6.292;2024-02-14T00:19:04;13.00;65.30
44537;DHT22;30245;51.966;6.292;2024-02-14T00:21:30;13.00;65.70
44537;DHT22;30245;51.966;6.292;2024-02-14T00:23:57;13.00;65.70
44537;DHT22;30245;51.966;6.292;2024-02-14T00:26:24;13.00;65.70
44537;DHT22;30245;51.966;6.292;2024-02-14T00:28:49;13.00;65.90
44537;DHT22;30245;51.966;6.292;2024-02-14T00:31:15;13.00;66.00
44537;DHT22;30245;51.966;6.292;2024-02-14T00:33:41;13.00;66.00
44537;DHT22;30245;51.966;6.292;2024-02-14T00:36:07;13.00;66.30
44537;DHT22;30245;51.966;6.292;2024-02-14T00:38:32;13.00;66.30
44537;DHT22;30245;51.966;6.292;2024-02-14T00:40:58;13.00;66.50
44537;DHT22;30245;51.966;6.292;2024-02-14T00:43:24;12.90;67.40
44537;DHT22;30245;51.966;6.292;2024-02-14T00:45:49;13.00;66.80
44537;DHT22;30245;51.966;6.292;2024-02-14T00:48:15;13.00;66.90
44537;DHT22;30245;51.966;6.292;2024-02-14T00:50:40;13.00;66.90
44537;DHT22;30245;51.966;6.292;2024-02-14T00:53:06;13.00;66.90
44537;DHT22;30245;51.966;6.292;2024-02-14T00:55:31;13.10;66.80
44537;DHT22;30245;51.966;6.292;2024-02-14T00:57:57;13.10;66.80
44537;DHT22;30245;51.966;6.292;2024-02-14T01:00:23;13.10;67.00
44537;DHT22;30245;51.966;6.292;2024-02-14T01:02:49;13.10;67.20
44537;DHT22;30245;51.966;6.292;2024-02-14T01:05:14;13.10;67.20
44537;DHT22;30245;51.966;6.292;2024-02-14T01:07:40;13.10;67.20
44537;DHT22;30245;51.966;6.292;2024-02-14T01:10:06;13.10;68.20
44537;DHT22;30245;51.966;6.292;2024-02-14T01:12:31;13.00;67.70
44537;DHT22;30245;51.966;6.292;2024-02-14T01:14:57;13.00;67.80
44537;DHT22;30245;51.966;6.292;2024-02-14T01:17:23;13.00;67.90
44537;DHT22;30245;51.966;6.292;2024-02-14T01:19:49;13.10;68.10
44537;DHT22;30245;51.966;6.292;2024-02-14T01:22:15;13.20;68.60
44537;DHT22;30245;51.966;6.292;2024-02-14T01:24:43;13.20;67.80
44537;DHT22;30245;51.966;6.292;2024-02-14T01:27:10;13.20;67.90
44537;DHT22;30245;51.966;6.292;2024-02-14T01:29:36;13.20;67.90
44537;DHT22;30245;51.966;6.292;2024-02-14T01:32:01;13.20;68.00
44537;DHT22;30245;51.966;6.292;2024-02-14T01:34:27;13.20;68.00
44537;DHT22;30245;51.966;6.292;2024-02-14T01:36:54;13.20;68.00
44537;DHT22;30245;51.966;6.292;2024-02-14T01:39:20;13.30;68.00
44537;DHT22;30245;51.966;6.292;2024-02-14T01:41:47;13.40;67.90
44537;DHT22;30245;51.966;6.292;2024-02-14T01:44:14;13.30;67.90
44537;DHT22;30245;51.966;6.292;2024-02-14T01:46:41;13.40;68.00
44537;DHT22;30245;51.966;6.292;2024-02-14T01:49:07;13.40;67.80
44537;DHT22;30245;51.966;6.292;2024-02-14T01:51:35;13.50;67.70
44537;DHT22;30245;51.966;6.292;2024-02-14T01:54:03;13.50;67.70
44537;DHT22;30245;51.966;6.292;2024-02-14T01:56:29;13.60;67.60
44537;DHT22;30245;51.966;6.292;2024-02-14T01:58:56;13.50;67.70
44537;DHT22;30245;51.966;6.292;2024-02-14T02:01:22;13.50;67.70
44537;DHT22;30245;51.966;6.292;2024-02-14T02:03:49;13.60;67.80
44537;DHT22;30245;51.966;6.292;2024-02-14T02:06:15;13.60;67.90
44537;DHT22;30245;51.966;6.292;2024-02-14T02:08:43;13.60;67.90
44537;DHT22;30245;51.966;6.292;2024-02-14T02:11:09;13.70;67.90
44537;DHT22;30245;51.966;6.292;2024-02-14T02:13:35;13.70;67.90
44537;DHT22;30245;51.966;6.292;2024-02-14T02:16:00;13.70;68.00
44537;DHT22;30245;51.966;6.292;2024-02-14T02:18:31;13.70;68.00
44537;DHT22;30245;51.966;6.292;2024-02-14T02:20:56;13.70;68.00
44537;DHT22;30245;51.966;6.292;2024-02-14T02:23:22;13.70;68.10
44537;DHT22;30245;51.966;6.292;2024-02-14T02:25:48;13.70;68.10
44537;DHT22;30245;51.966;6.292;2024-02-14T02:28:14;13.70;68.10
44537;DHT22;30245;51.966;6.292;2024-02-14T02:30:40;13.80;68.10
44537;DHT22;30245;51.966;6.292;2024-02-14T02:33:05;13.80;68.10
44537;DHT22;30245;51.966;6.292;2024-02-14T02:35:32;13.80;68.10
44537;DHT22;30245;51.966;6.292;2024-02-14T02:37:58;13.90;68.00
44537;DHT22;30245;51.966;6.292;2024-02-14T02:40:24;14.00;67.90
44537;DHT22;30245;51.966;6.292;2024-02-14T02:42:51;14.00;67.90
44537;DHT22;30245;51.966;6.292;2024-02-14T02:45:17;14.00;67.90
44537;DHT22;30245;51.966;6.292;2024-02-14T02:47:43;14.00;68.00
44537;DHT22;30245;51.966;6.292;2024-02-14T02:50:08;14.00;68.00
44537;DHT22;30245;51.966;6.292;2024-02-14T02:52:34;14.00;67.90
44537;DHT22;30245;51.966;6.292;2024-02-14T02:55:00;14.00;67.90
44537;DHT22;30245;51.966;6.292;2024-02-14T02:57:27;14.00;68.00
44537;DHT22;30245;51.966;6.292;2024-02-14T02:59:53;14.00;68.20
44537;DHT22;30245;51.966;6.292;2024-02-14T03:02:19;14.00;68.30
44537;DHT22;30245;51.966;6.292;2024-02-14T03:04:45;14.10;68.20
44537;DHT22;30245;51.966;6.292;2024-02-14T03:07:12;14.10;68.30
44537;DHT22;30245;51.966;6.292;2024-02-14T03:09:37;14.00;69.00
44537;DHT22;30245;51.966;6.292;2024-02-14T03:12:04;14.00;68.60
44537;DHT22;30245;51.966;6.292;2024-02-14T03:14:30;14.00;68.70
44537;DHT22;30245;51.966;6.292;2024-02-14T03:16:59;14.00;68.80
44537;DHT22;30245;51.966;6.292;2024-02-14T03:19:25;14.00;68.80
44537;DHT22;30245;51.966;6.292;2024-02-14T03:21:53;14.00;68.80
44537;DHT22;30245;51.966;6.292;2024-02-14T03:24:18;14.00;68.80
44537;DHT22;30245;51.966;6.292;2024-02-14T03:26:44;13.90;68.90
44537;DHT22;30245;51.966;6.292;2024-02-14T03:29:09;13.90;69.20
44537;DHT22;30245;51.966;6.292;2024-02-14T03:31:35;13.90;69.20
44537;DHT22;30245;51.966;6.292;2024-02-14T03:34:01;14.00;69.30
44537;DHT22;30245;51.966;6.292;2024-02-14T03:36:27;14.00;69.20
44537;DHT22;30245;51.966;6.292;2024-02-14T03:38:58;14.00;69.30
44537;DHT22;30245;51.966;6.292;2024-02-14T03:41:24;14.00;69.10
44537;DHT22;30245;51.966;6.292;2024-02-14T03:43:50;14.10;69.10
44537;DHT22;30245;51.966;6.292;2024-02-14T03:46:18;14.00;69.30
44537;DHT22;30245;51.966;6.292;2024-02-14T03:48:46;14.10;69.30
44537;DHT22;30245;51.966;6.292;2024-02-14T03:51:13;14.00;69.30
44537;DHT22;30245;51.966;6.292;2024-02-14T03:53:39;14.00;69.50
44537;DHT22;30245;51.966;6.292;2024-02-14T03:56:05;14.00;69.60
44537;DHT22;30245;51.966;6.292;2024-02-14T03:58:32;14.00;69.70
44537;DHT22;30245;51.966;6.292;2024-02-14T04:01:03;14.00;69.80
44537;DHT22;30245;51.966;6.292;2024-02-14T04:03:28;14.00;69.80
44537;DHT22;30245;51.966;6.292;2024-02-14T04:05:54;14.00;69.80
44537;DHT22;30245;51.966;6.292;2024-02-14T04:08:20;14.00;69.90
44537;DHT22;30245;51.966;6.292;2024-02-14T04:10:45;14.00;70.10
44537;DHT22;30245;51.966;6.292;2024-02-14T04:13:11;14.00;70.10
44537;DHT22;30245;51.966;6.292;2024-02-14T04:15:37;14.10;70.10
44537;DHT22;30245;51.966;6.292;2024-02-14T04:18:02;14.10;70.10
44537;DHT22;30245;51.966;6.292;2024-02-14T04:20:31;14.20;70.10
44537;DHT22;30245;51.966;6.292;2024-02-14T04:22:56;14.20;69.90
44537;DHT22;30245;51.966;6.292;2024-02-14T04:25:24;14.20;69.60
44537;DHT22;30245;51.966;6.292;2024-02-14T04:27:49;14.20;69.70
44537;DHT22;30245;51.966;6.292;2024-02-14T04:30:15;14.20;69.80
44537;DHT22;30245;51.966;6.292;2024-02-14T04:32:40;14.20;69.90
44537;DHT22;30245;51.966;6.292;2024-02-14T04:35:06;14.20;70.00
44537;DHT22;30245;51.966;6.292;2024-02-14T04:37:32;14.20;70.30
44537;DHT22;30245;51.966;6.292;2024-02-14T04:39:58;14.20;70.20
44537;DHT22;30245;51.966;6.292;2024-02-14T04:42:24;14.20;70.30
44537;DHT22;30245;51.966;6.292;2024-02-14T04:44:50;14.30;70.30
44537;DHT22;30245;51.966;6.292;2024-02-14T04:47:15;14.30;70.10
44537;DHT22;30245;51.966;6.292;2024-02-14T04:49:41;14.30;70.00
44537;DHT22;30245;51.966;6.292;2024-02-14T04:52:07;14.30;70.00
44537;DHT22;30245;51.966;6.292;2024-02-14T04:54:33;14.30;70.00
44537;DHT22;30245;51.966;6.292;2024-02-14T04:56:59;14.40;70.00
44537;DHT22;30245;51.966;6.292;2024-02-14T04:59:25;14.40;69.90
44537;DHT22;30245;51.966;6.292;2024-02-14T05:01:50;14.40;69.90
44537;DHT22;30245;51.966;6.292;2024-02-14T05:04:18;14.40;70.00
44537;DHT22;30245;51.966;6.292;2024-02-14T05:06:44;14.50;69.80
44537;DHT22;30245;51.966;6.292;2024-02-14T05:09:10;14.50;69.60
44537;DHT22;30245;51.966;6.292;2024-02-14T05:11:36;14.50;69.70
44537;DHT22;30245;51.966;6.292;2024-02-14T05:14:02;14.50;69.70
44537;DHT22;30245;51.966;6.292;2024-02-14T05:16:28;14.50;69.90
44537;DHT22;30245;51.966;6.292;2024-02-14T05:18:53;14.50;70.10
44537;DHT22;30245;51.966;6.292;2024-02-14T05:21:22;14.50;70.20
44537;DHT22;30245;51.966;6.292;2024-02-14T05:23:47;14.40;70.20
44537;DHT22;30245;51.966;6.292;2024-02-14T05:26:13;14.40;70.30
44537;DHT22;30245;51.966;6.292;2024-02-14T05:28:39;14.40;70.50
44537;DHT22;30245;51.966;6.292;2024-02-14T05:31:05;14.40;70.60
44537;DHT22;30245;51.966;6.292;2024-02-14T05:33:31;14.50;70.50
44537;DHT22;30245;51.966;6.292;2024-02-14T05:35:56;14.50;70.50
44537;DHT22;30245;51.966;6.292;2024-02-14T05:38:22;14.50;70.40
44537;DHT22;30245;51.966;6.292;2024-02-14T05:40:49;14.60;70.20
44537;DHT22;30245;51.966;6.292;2024-02-14T05:43:15;14.60;70.80
44537;DHT22;30245;51.966;6.292;2024-02-14T05:45:41;14.60;70.10
44537;DHT22;30245;51.966;6.292;2024-02-14T05:48:07;14.60;70.10
44537;DHT22;30245;51.966;6.292;2024-02-14T05:50:33;14.60;70.20
44537;DHT22;30245;51.966;6.292;2024-02-14T05:52:59;14.60;70.30
44537;DHT22;30245;51.966;6.292;2024-02-14T05:55:25;14.60;70.50
44537;DHT22;30245;51.966;6.292;2024-02-14T05:57:51;14.60;70.60
44537;DHT22;30245;51.966;6.292;2024-02-14T06:00:18;14.60;70.50
44537;DHT22;30245;51.966;6.292;2024-02-14T06:02:44;14.60;70.50
44537;DHT22;30245;51.966;6.292;2024-02-14T06:05:10;14.60;70.40
44537;DHT22;30245;51.966;6.292;2024-02-14T06:07:39;14.60;70.40
44537;DHT22;30245;51.966;6.292;2024-02-14T06:10:06;14.60;70.40
44537;DHT22;30245;51.966;6.292;2024-02-14T06:12:32;14.70;70.30
44537;DHT22;30245;51.966;6.292;2024-02-14T06:14:58;14.70;70.10
44537;DHT22;30245;51.966;6.292;2024-02-14T06:17:23;14.80;70.80
44537;DHT22;30245;51.966;6.292;2024-02-14T06:19:49;14.80;70.10
44537;DHT22;30245;51.966;6.292;2024-02-14T06:22:15;14.80;70.00
44537;DHT22;30245;51.966;6.292;2024-02-14T06:24:41;14.80;70.00
44537;DHT22;30245;51.966;6.292;2024-02-14T06:27:06;14.80;70.00
44537;DHT22;30245;51.966;6.292;2024-02-14T06:29:32;14.80;70.10
44537;DHT22;30245;51.966;6.292;2024-02-14T06:31:58;14.90;70.10
44537;DHT22;30245;51.966;6.292;2024-02-14T06:34:23;14.80;70.10
44537;DHT22;30245;51.966;6.292;2024-02-14T06:36:49;14.70;70.40
44537;DHT22;30245;51.966;6.292;2024-02-14T06:39:15;14.70;70.50
44537;DHT22;30245;51.966;6.292;2024-02-14T06:41:40;14.80;70.40
44537;DHT22;30245;51.966;6.292;2024-02-14T06:44:06;14.80;70.40
44537;DHT22;30245;51.966;6.292;2024-02-14T06:46:32;14.70;70.40
44537;DHT22;30245;51.966;6.292;2024-02-14T06:48:57;14.80;70.60
44537;DHT22;30245;51.966;6.292;2024-02-14T06:51:23;14.80;70.60
44537;DHT22;30245;51.966;6.292;2024-02-14T06:53:50;14.80;70.50
44537;DHT22;30245;51.966;6.292;2024-02-14T06:56:16;14.90;70.50
44537;DHT22;30245;51.966;6.292;2024-02-14T06:58:41;14.80;70.50
44537;DHT22;30245;51.966;6.292;2024-02-14T07:01:07;14.80;70.40
44537;DHT22;30245;51.966;6.292;2024-02-14T07:03:33;14.80;70.60
44537;DHT22;30245;51.966;6.292;2024-02-14T07:05:59;14.70;70.90
44537;DHT22;30245;51.966;6.292;2024-02-14T07:08:25;14.70;71.00
44537;DHT22;30245;51.966;6.292;2024-02-14T07:10:54;14.80;70.90
44537;DHT22;30245;51.966;6.292;2024-02-14T07:13:20;14.90;70.90
44537;DHT22;30245;51.966;6.292;2024-02-14T07:15:45;14.90;70.80
44537;DHT22;30245;51.966;6.292;2024-02-14T07:18:11;14.90;70.70
44537;DHT22;30245;51.966;6.292;2024-02-14T07:20:36;14.90;70.60
44537;DHT22;30245;51.966;6.292;2024-02-14T07:23:02;14.90;70.70
44537;DHT22;30245;51.966;6.292;2024-02-14T07:25:28;14.80;70.80
44537;DHT22;30245;51.966;6.292;2024-02-14T07:27:54;14.80;71.10
44537;DHT22;30245;51.966;6.292;2024-02-14T07:30:19;14.70;71.30
44537;DHT22;30245;51.966;6.292;2024-02-14T07:32:45;14.80;71.40
44537;DHT22;30245;51.966;6.292;2024-02-14T07:35:11;14.80;71.30
44537;DHT22;30245;51.966;6.292;2024-02-14T07:37:39;14.90;71.20
44537;DHT22;30245;51.966;6.292;2024-02-14T07:40:05;14.90;71.20
44537;DHT22;30245;51.966;6.292;2024-02-14T07:42:31;14.90;71.10
44537;DHT22;30245;51.966;6.292;2024-02-14T07:44:57;14.90;71.20
44537;DHT22;30245;51.966;6.292;2024-02-14T07:47:23;14.90;71.20
44537;DHT22;30245;51.966;6.292;2024-02-14T07:49:48;15.00;71.10
44537;DHT22;30245;51.966;6.292;2024-02-14T07:52:14;15.00;71.10
44537;DHT22;30245;51.966;6.292;2024-02-14T07:54:39;14.90;71.20
44537;DHT22;30245;51.966;6.292;2024-02-14T07:57:05;15.00;71.10
44537;DHT22;30245;51.966;6.292;2024-02-14T07:59:30;15.10;71.00
44537;DHT22;30245;51.966;6.292;2024-02-14T08:01:56;15.10;70.90
44537;DHT22;30245;51.966;6.292;2024-02-14T08:04:22;15.10;70.90
44537;DHT22;30245;51.966;6.292;2024-02-14T08:06:48;15.10;70.90
44537;DHT22;30245;51.966;6.292;2024-02-14T08:09:16;15.10;70.90
44537;DHT22;30245;51.966;6.292;2024-02-14T08:11:42;15.10;71.00
44537;DHT22;30245;51.966;6.292;2024-02-14T08:14:07;15.10;71.00
44537;DHT22;30245;51.966;6.292;2024-02-14T08:16:33;15.10;70.90
44537;DHT22;30245;51.966;6.292;2024-02-14T08:18:59;15.20;70.90
44537;DHT22;30245;51.966;6.292;2024-02-14T08:21:28;15.10;70.90
44537;DHT22;30245;51.966;6.292;2024-02-14T08:23:54;15.20;71.10
44537;DHT22;30245;51.966;6.292;2024-02-14T08:26:21;15.20;71.00
44537;DHT22;30245;51.966;6.292;2024-02-14T08:28:48;15.20;70.90
44537;DHT22;30245;51.966;6.292;2024-02-14T08:31:13;15.20;71.00
44537;DHT22;30245;51.966;6.292;2024-02-14T08:33:39;15.30;70.90
44537;DHT22;30245;51.966;6.292;2024-02-14T08:36:05;15.20;70.90
44537;DHT22;30245;51.966;6.292;2024-02-14T08:38:32;15.30;70.90
44537;DHT22;30245;51.966;6.292;2024-02-14T08:40:58;15.30;71.00
44537;DHT22;30245;51.966;6.292;2024-02-14T08:43:24;15.20;71.10
44537;DHT22;30245;51.966;6.292;2024-02-14T08:45:54;15.30;71.20
44537;DHT22;30245;51.966;6.292;2024-02-14T08:48:19;15.30;71.00
44537;DHT22;30245;51.966;6.292;2024-02-14T08:50:45;15.30;70.90
44537;DHT22;30245;51.966;6.292;2024-02-14T08:53:12;15.30;70.70
44537;DHT22;30245;51.966;6.292;2024-02-14T08:55:42;15.40;70.90
44537;DHT22;30245;51.966;6.292;2024-02-14T08:58:08;15.50;70.80
44537;DHT22;30245;51.966;6.292;2024-02-14T09:00:35;15.40;70.70
44537;DHT22;30245;51.966;6.292;2024-02-14T09:03:02;15.40;71.00
44537;DHT22;30245;51.966;6.292;2024-02-14T09:05:28;15.40;71.10
44537;DHT22;30245;51.966;6.292;2024-02-14T09:07:54;15.40;71.00
44537;DHT22;30245;51.966;6.292;2024-02-14T09:10:19;15.50;70.90
44537;DHT22;30245;51.966;6.292;2024-02-14T09:12:46;15.40;70.90
44537;DHT22;30245;51.966;6.292;2024-02-14T09:15:11;15.40;70.80
44537;DHT22;30245;51.966;6.292;2024-02-14T09:17:38;15.40;70.90
44537;DHT22;30245;51.966;6.292;2024-02-14T09:20:06;15.40;71.00
44537;DHT22;30245;51.966;6.292;2024-02-14T09:22:35;15.40;70.90
44537;DHT22;30245;51.966;6.292;2024-02-14T09:25:01;15.40;71.00
44537;DHT22;30245;51.966;6.292;2024-02-14T09:27:32;15.40;71.00
44537;DHT22;30245;51.966;6.292;2024-02-14T09:30:01;15.50;71.00
44537;DHT22;30245;51.966;6.292;2024-02-14T09:32:26;15.50;71.00
44537;DHT22;30245;51.966;6.292;2024-02-14T09:34:52;15.50;71.00
44537;DHT22;30245;51.966;6.292;2024-02-14T09:37:17;15.50;70.90
44537;DHT22;30245;51.966;6.292;2024-02-14T09:39:44;15.60;70.90
44537;DHT22;30245;51.966;6.292;2024-02-14T09:42:13;15.50;70.90
44537;DHT22;30245;51.966;6.292;2024-02-14T09:44:40;15.60;70.80
44537;DHT22;30245;51.966;6.292;2024-02-14T09:47:07;15.60;70.70
44537;DHT22;30245;51.966;6.292;2024-02-14T09:49:35;15.60;70.80
44537;DHT22;30245;51.966;6.292;2024-02-14T09:52:02;15.60;71.00
44537;DHT22;30245;51.966;6.292;2024-02-14T09:54:29;15.60;71.00
44537;DHT22;30245;51.966;6.292;2024-02-14T09:56:57;15.60;70.90
44537;DHT22;30245;51.966;6.292;2024-02-14T09:59:23;15.60;71.60
44537;DHT22;30245;51.966;6.292;2024-02-14T10:01:49;15.70;70.80
44537;DHT22;30245;51.966;6.292;2024-02-14T10:04:17;15.70;70.60
44537;DHT22;30245;51.966;6.292;2024-02-14T10:06:44;15.70;70.60
44537;DHT22;30245;51.966;6.292;2024-02-14T10:09:10;15.70;70.50
44537;DHT22;30245;51.966;6.292;2024-02-14T10:11:36;15.70;70.70
44537;DHT22;30245;51.966;6.292;2024-02-14T10:14:02;15.60;70.80
44537;DHT22;30245;51.966;6.292;2024-02-14T10:16:29;15.60;71.10
44537;DHT22;30245;51.966;6.292;2024-02-14T10:18:55;15.50;71.10
44537;DHT22;30245;51.966;6.292;2024-02-14T10:21:23;15.60;71.10
44537;DHT22;30245;51.966;6.292;2024-02-14T10:23:50;15.60;71.00
44537;DHT22;30245;51.966;6.292;2024-02-14T10:26:17;15.70;70.80
44537;DHT22;30245;51.966;6.292;2024-02-14T10:28:43;15.70;70.80
44537;DHT22;30245;51.966;6.292;2024-02-14T10:31:25;15.60;70.70
44537;DHT22;30245;51.966;6.292;2024-02-14T10:33:54;15.70;71.00
44537;DHT22;30245;51.966;6.292;2024-02-14T10:36:20;15.60;70.90
44537;DHT22;30245;51.966;6.292;2024-02-14T10:38:47;15.70;70.90
44537;DHT22;30245;51.966;6.292;2024-02-14T10:41:16;15.80;71.00
44537;DHT22;30245;51.966;6.292;2024-02-14T10:43:42;15.80;71.50
44537;DHT22;30245;51.966;6.292;2024-02-14T10:46:22;15.80;70.80
44537;DHT22;30245;51.966;6.292;2024-02-14T10:48:51;15.90;70.60
44537;DHT22;30245;51.966;6.292;2024-02-14T10:51:20;16.00;70.50
44537;DHT22;30245;51.966;6.292;2024-02-14T10:53:47;16.00;70.30
44537;DHT22;30245;51.966;6.292;2024-02-14T10:56:18;16.10;70.40
44537;DHT22;30245;51.966;6.292;2024-02-14T10:58:47;16.00;70.40
44537;DHT22;30245;51.966;6.292;2024-02-14T11:01:14;16.00;70.40
44537;DHT22;30245;51.966;6.292;2024-02-14T11:03:42;16.00;70.60
44537;DHT22;30245;51.966;6.292;2024-02-14T11:06:08;16.10;70.70
44537;DHT22;30245;51.966;6.292;2024-02-14T11:08:33;16.10;70.50
44537;DHT22;30245;51.966;6.292;2024-02-14T11:11:01;16.20;70.30
44537;DHT22;30245;51.966;6.292;2024-02-14T11:13:28;16.20;70.30
44537;DHT22;30245;51.966;6.292;2024-02-14T11:15:54;16.30;70.30
44537;DHT22;30245;51.966;6.292;2024-02-14T11:18:29;16.30;70.30
44537;DHT22;30245;51.966;6.292;2024-02-14T11:20:55;16.20;70.30
44537;DHT22;30245;51.966;6.292;2024-02-14T11:23:23;16.20;70.50
44537;DHT22;30245;51.966;6.292;2024-02-14T11:25:49;16.20;70.60
44537;DHT22;30245;51.966;6.292;2024-02-14T11:28:16;16.20;70.60
44537;DHT22;30245;51.966;6.292;2024-02-14T11:30:43;16.30;70.60
44537;DHT22;30245;51.966;6.292;2024-02-14T11:33:18;16.30;70.50
44537;DHT22;30245;51.966;6.292;2024-02-14T11:35:46;16.40;70.20
44537;DHT22;30245;51.966;6.292;2024-02-14T11:38:13;16.50;70.10
44537;DHT22;30245;51.966;6.292;2024-02-14T11:40:39;16.50;69.90
44537;DHT22;30245;51.966;6.292;2024-02-14T11:43:13;16.50;69.80
44537;DHT22;30245;51.966;6.292;2024-02-14T11:45:43;16.50;69.80
44537;DHT22;30245;51.966;6.292;2024-02-14T11:48:13;16.60;69.80
44537;DHT22;30245;51.966;6.292;2024-02-14T11:50:40;16.60;69.70
44537;DHT22;30245;51.966;6.292;2024-02-14T11:53:07;16.60;69.60
44537;DHT22;30245;51.966;6.292;2024-02-14T11:55:35;16.70;69.70
44537;DHT22;30245;51.966;6.292;2024-02-14T11:58:03;16.60;69.70
44537;DHT22;30245;51.966;6.292;2024-02-14T12:00:28;16.60;69.60
44537;DHT22;30245;51.966;6.292;2024-02-14T12:02:54;16.60;69.90
44537;DHT22;30245;51.966;6.292;2024-02-14T12:05:20;16.60;70.00
44537;DHT22;30245;51.966;6.292;2024-02-14T12:07:46;16.60;70.00
44537;DHT22;30245;51.966;6.292;2024-02-14T12:10:12;16.60;70.00
44537;DHT22;30245;51.966;6.292;2024-02-14T12:12:45;16.60;70.10
44537;DHT22;30245;51.966;6.292;2024-02-14T12:15:11;16.60;70.70
44537;DHT22;30245;51.966;6.292;2024-02-14T12:17:39;16.70;70.20
44537;DHT22;30245;51.966;6.292;2024-02-14T12:20:09;16.70;69.90
44537;DHT22;30245;51.966;6.292;2024-02-14T12:22:39;16.70;69.90
44537;DHT22;30245;51.966;6.292;2024-02-14T12:25:09;16.70;69.90
44537;DHT22;30245;51.966;6.292;2024-02-14T12:27:37;16.70;70.10
44537;DHT22;30245;51.966;6.292;2024-02-14T12:30:04;16.70;70.00
44537;DHT22;30245;51.966;6.292;2024-02-14T12:32:29;16.80;69.80
44537;DHT22;30245;51.966;6.292;2024-02-14T12:34:56;16.90;69.60
44537;DHT22;30245;51.966;6.292;2024-02-14T12:37:23;16.90;69.60
44537;DHT22;30245;51.966;6.292;2024-02-14T12:39:48;16.80;69.70
44537;DHT22;30245;51.966;6.292;2024-02-14T12:42:14;16.80;69.70
44537;DHT22;30245;51.966;6.292;2024-02-14T12:44:40;16.80;69.80
44537;DHT22;30245;51.966;6.292;2024-02-14T12:47:06;16.80;69.80
44537;DHT22;30245;51.966;6.292;2024-02-14T12:49:33;16.80;69.70
44537;DHT22;30245;51.966;6.292;2024-02-14T12:51:59;16.90;69.80
44537;DHT22;30245;51.966;6.292;2024-02-14T12:54:25;16.90;69.70
44537;DHT22;30245;51.966;6.292;2024-02-14T12:56:51;16.90;69.70
44537;DHT22;30245;51.966;6.292;2024-02-14T12:59:18;17.00;69.60
44537;DHT22;30245;51.966;6.292;2024-02-14T13:01:44;17.00;69.50
44537;DHT22;30245;51.966;6.292;2024-02-14T13:04:10;16.90;69.60
44537;DHT22;30245;51.966;6.292;2024-02-14T13:06:36;16.90;69.70
44537;DHT22;30245;51.966;6.292;2024-02-14T13:09:03;16.90;69.60
44537;DHT22;30245;51.966;6.292;2024-02-14T13:11:31;16.90;69.80
44537;DHT22;30245;51.966;6.292;2024-02-14T13:13:57;16.90;69.80
44537;DHT22;30245;51.966;6.292;2024-02-14T13:16:23;16.90;69.70
44537;DHT22;30245;51.966;6.292;2024-02-14T13:18:49;16.90;69.70
44537;DHT22;30245;51.966;6.292;2024-02-14T13:21:14;16.80;69.90
44537;DHT22;30245;51.966;6.292;2024-02-14T13:23:42;16.90;69.80
44537;DHT22;30245;51.966;6.292;2024-02-14T13:26:07;16.80;69.90
44537;DHT22;30245;51.966;6.292;2024-02-14T13:28:33;16.80;69.90
44537;DHT22;30245;51.966;6.292;2024-02-14T13:30:59;16.90;69.80
44537;DHT22;30245;51.966;6.292;2024-02-14T13:33:24;16.80;69.70
44537;DHT22;30245;51.966;6.292;2024-02-14T13:35:50;16.70;69.70
44537;DHT22;30245;51.966;6.292;2024-02-14T13:38:16;16.70;70.00
44537;DHT22;30245;51.966;6.292;2024-02-14T13:40:42;16.70;70.20
44537;DHT22;30245;51.966;6.292;2024-02-14T13:43:08;16.70;70.00
44537;DHT22;30245;51.966;6.292;2024-02-14T13:45:43;16.70;70.00
44537;DHT22;30245;51.966;6.292;2024-02-14T13:48:08;16.70;70.10
44537;DHT22;30245;51.966;6.292;2024-02-14T13:50:35;16.70;70.00
44537;DHT22;30245;51.966;6.292;2024-02-14T13:53:00;16.70;70.10
44537;DHT22;30245;51.966;6.292;2024-02-14T13:55:26;16.80;70.00
44537;DHT22;30245;51.966;6.292;2024-02-14T13:57:51;16.80;69.70
44537;DHT22;30245;51.966;6.292;2024-02-14T14:00:17;16.80;69.90
44537;DHT22;30245;51.966;6.292;2024-02-14T14:02:42;16.70;70.00
44537;DHT22;30245;51.966;6.292;2024-02-14T14:05:09;16.70;70.10
44537;DHT22;30245;51.966;6.292;2024-02-14T14:07:38;16.60;70.30
44537;DHT22;30245;51.966;6.292;2024-02-14T14:10:08;16.60;70.40
44537;DHT22;30245;51.966;6.292;2024-02-14T14:12:34;16.70;70.30
44537;DHT22;30245;51.966;6.292;2024-02-14T14:15:01;16.70;70.20
44537;DHT22;30245;51.966;6.292;2024-02-14T14:17:27;16.60;70.50
44537;DHT22;30245;51.966;6.292;2024-02-14T14:19:53;16.60;70.70
44537;DHT22;30245;51.966;6.292;2024-02-14T14:22:19;16.60;70.80
44537;DHT22;30245;51.966;6.292;2024-02-14T14:24:44;16.50;70.90
44537;DHT22;30245;51.966;6.292;2024-02-14T14:27:10;16.50;71.60
44537;DHT22;30245;51.966;6.292;2024-02-14T14:29:42;16.60;71.00
44537;DHT22;30245;51.966;6.292;2024-02-14T14:32:08;16.60;71.00
44537;DHT22;30245;51.966;6.292;2024-02-14T14:34:34;16.60;71.00
44537;DHT22;30245;51.966;6.292;2024-02-14T14:36:59;16.60;70.90
44537;DHT22;30245;51.966;6.292;2024-02-14T14:39:25;16.60;70.80
44537;DHT22;30245;51.966;6.292;2024-02-14T14:41:51;16.70;70.90
44537;DHT22;30245;51.966;6.292;2024-02-14T14:44:18;16.70;70.80
44537;DHT22;30245;51.966;6.292;2024-02-14T14:46:44;16.60;70.80
44537;DHT22;30245;51.966;6.292;2024-02-14T14:49:10;16.60;71.00
44537;DHT22;30245;51.966;6.292;2024-02-14T14:51:36;16.60;71.20
44537;DHT22;30245;51.966;6.292;2024-02-14T14:54:04;16.60;71.20
44537;DHT22;30245;51.966;6.292;2024-02-14T14:56:30;16.70;71.10
44537;DHT22;30245;51.966;6.292;2024-02-14T14:58:55;16.80;71.00
44537;DHT22;30245;51.966;6.292;2024-02-14T15:01:22;16.70;70.90
44537;DHT22;30245;51.966;6.292;2024-02-14T15:03:47;16.80;70.90
44537;DHT22;30245;51.966;6.292;2024-02-14T15:06:13;16.80;70.80
44537;DHT22;30245;51.966;6.292;2024-02-14T15:08:40;16.90;70.70
44537;DHT22;30245;51.966;6.292;2024-02-14T15:11:09;16.90;70.60
44537;DHT22;30245;51.966;6.292;2024-02-14T15:13:34;16.90;70.60
44537;DHT22;30245;51.966;6.292;2024-02-14T15:16:00;16.90;70.70
44537;DHT22;30245;51.966;6.292;2024-02-14T15:18:28;16.80;71.10
44537;DHT22;30245;51.966;6.292;2024-02-14T15:20:54;16.70;71.20
44537;DHT22;30245;51.966;6.292;2024-02-14T15:23:19;16.80;71.20
44537;DHT22;30245;51.966;6.292;2024-02-14T15:25:45;16.80;71.20